Time;durP1;ratioP1;P1;durP2;ratioP2;P2;SDS_P1;SDS_P2;PMS_P1;PMS_P2;Temp;Humidity;BMP_temperature;BMP_pressure;BME280_temperature;BME280_humidity;BME280_pressure;Samples;Min_cycle;Max_cycle;Signal;HPM_P1;HPM_P2
2022/11/16 00:01:16;;;;;;;9.85;7.53;;;;;;;8.29;79.57;96974.41;4969594;28;20035;-84
2022/11/16 00:03:42;;;;;;;13.45;7.80;;;;;;;8.19;79.68;96982.69;4969942;28;20501;-84
2022/11/16 00:06:10;;;;;;;14.80;8.23;;;;;;;8.13;79.93;96972.28;4969552;28;20030;-84
2022/11/16 00:08:42;;;;;;;14.50;8.07;;;;;;;8.15;79.96;96965.03;4969448;28;20117;-84
2022/11/16 00:11:11;;;;;;;12.23;8.05;;;;;;;8.12;80.08;96958.44;4971872;28;20089;-84
2022/11/16 00:13:38;;;;;;;14.40;8.10;;;;;;;8.01;80.01;96949.47;4969878;28;20043;-83
2022/11/16 00:16:06;;;;;;;13.02;7.90;;;;;;;8.00;80.37;96955.69;4969677;28;20041;-81
2022/11/16 00:18:33;;;;;;;14.32;7.82;;;;;;;7.94;80.34;96940.88;4969663;28;20070;-83
2022/11/16 00:20:58;;;;;;;14.75;8.40;;;;;;;7.95;80.36;96944.28;4969928;28;20039;-83
2022/11/16 00:23:24;;;;;;;12.32;8.57;;;;;;;7.99;80.26;96940.25;4969318;28;20402;-83
2022/11/16 00:25:50;;;;;;;14.00;7.93;;;;;;;7.90;79.99;96941.50;4969634;28;20479;-83
2022/11/16 00:28:16;;;;;;;12.07;7.97;;;;;;;7.87;80.58;96937.50;4970104;28;20398;-83
2022/11/16 00:30:42;;;;;;;14.25;8.98;;;;;;;7.91;80.13;96923.00;4964919;28;20059;-82
2022/11/16 00:33:14;;;;;;;11.02;8.10;;;;;;;7.91;80.29;96928.22;4968992;28;20037;-83
2022/11/16 00:35:39;;;;;;;9.27;5.35;;;;;;;7.85;79.61;96928.28;4969469;28;20918;-83
2022/11/16 00:38:05;;;;;;;14.27;7.68;;;;;;;7.91;79.85;96922.22;4969289;28;20122;-82
2022/11/16 00:40:31;;;;;;;13.15;8.43;;;;;;;7.93;79.45;96920.22;4969251;28;20042;-83
2022/11/16 00:42:56;;;;;;;13.63;8.38;;;;;;;7.91;79.39;96924.81;4969953;28;20038;-83
2022/11/16 00:45:22;;;;;;;15.30;9.15;;;;;;;7.91;78.80;96940.47;4969692;28;20050;-83
2022/11/16 00:47:47;;;;;;;15.13;8.15;;;;;;;8.02;78.45;96945.84;4970041;28;20027;-83
2022/11/16 00:50:13;;;;;;;16.50;8.52;;;;;;;7.99;77.91;96940.25;4969831;28;20053;-83
2022/11/16 00:52:38;;;;;;;13.95;8.77;;;;;;;7.99;77.96;96943.66;4970002;28;20063;-82
2022/11/16 00:55:05;;;;;;;11.68;8.50;;;;;;;8.05;77.84;96949.84;4984721;28;20035;-83
2022/11/16 00:57:30;;;;;;;12.07;7.95;;;;;;;8.09;77.97;96940.56;4970102;28;20035;-83
2022/11/16 00:59:56;;;;;;;11.38;7.88;;;;;;;8.14;77.76;96942.53;4969567;28;20506;-83
2022/11/16 01:02:21;;;;;;;12.82;7.50;;;;;;;8.11;77.26;96943.78;4969317;28;20495;-83
2022/11/16 01:04:47;;;;;;;16.10;8.38;;;;;;;8.17;77.77;96944.75;4969190;28;20440;-83
2022/11/16 01:07:12;;;;;;;12.75;8.35;;;;;;;8.20;76.92;96952.16;4969275;28;20097;-83
2022/11/16 01:09:38;;;;;;;13.75;8.02;;;;;;;8.22;77.39;96953.53;4968840;28;20038;-83
2022/11/16 01:12:11;;;;;;;12.23;7.95;;;;;;;8.26;77.42;96952.09;4969306;28;20042;-83
2022/11/16 01:14:44;;;;;;;13.38;8.75;;;;;;;8.28;76.95;96950.09;4968622;28;20038;-83
2022/11/16 01:17:12;;;;;;;12.73;8.50;;;;;;;8.35;76.56;96946.63;4969422;28;20122;-83
2022/11/16 01:19:38;;;;;;;13.13;7.72;;;;;;;8.25;76.26;96947.88;4968950;28;20047;-83
2022/11/16 01:22:04;;;;;;;9.70;6.90;;;;;;;8.21;76.72;96954.53;4969522;28;20039;-83
2022/11/16 01:24:30;;;;;;;17.70;8.50;;;;;;;8.24;77.11;96953.34;4968190;28;20053;-83
2022/11/16 01:26:57;;;;;;;13.45;8.63;;;;;;;8.30;77.06;96953.28;4971150;28;20446;-83
2022/11/16 01:29:28;;;;;;;14.65;8.43;;;;;;;8.39;76.63;96953.84;4968775;28;20556;-83
2022/11/16 01:31:55;;;;;;;13.50;8.57;;;;;;;8.43;76.40;96946.38;4965544;28;20133;-83
2022/11/16 01:34:22;;;;;;;14.65;8.43;;;;;;;8.32;75.79;96940.00;4969169;28;20039;-83
2022/11/16 01:36:48;;;;;;;12.73;8.27;;;;;;;8.31;76.01;96943.63;4969416;28;20597;-83
2022/11/16 01:39:14;;;;;;;14.55;8.20;;;;;;;8.20;75.98;96942.50;4968283;28;20073;-83
2022/11/16 01:41:42;;;;;;;13.18;8.23;;;;;;;8.25;76.14;96939.25;4967774;28;20093;-83
2022/11/16 01:44:14;;;;;;;14.57;8.85;;;;;;;8.27;76.15;96938.00;4987723;28;20062;-83
2022/11/16 01:46:41;;;;;;;14.93;9.00;;;;;;;8.20;76.43;96942.50;4971656;28;20043;-83
2022/11/16 01:49:14;;;;;;;16.55;7.97;;;;;;;8.19;76.42;96940.91;4972732;28;20026;-83
2022/11/16 01:52:00;;;;;;;14.13;8.45;;;;;;;8.14;76.86;96942.53;4971166;28;20039;-83
2022/11/16 01:54:29;;;;;;;13.98;8.07;;;;;;;8.03;77.01;96936.19;4972515;28;20031;-83
2022/11/16 01:56:59;;;;;;;16.55;9.32;;;;;;;8.11;77.40;96943.78;4972281;28;20074;-83
2022/11/16 01:59:25;;;;;;;14.63;9.02;;;;;;;8.11;76.86;96927.31;4972095;28;20049;-83
2022/11/16 02:01:51;;;;;;;15.20;8.80;;;;;;;8.15;76.98;96933.69;4972155;28;20030;-83
2022/11/16 02:04:16;;;;;;;15.60;8.57;;;;;;;8.09;76.74;96926.72;4979727;28;20039;-82
2022/11/16 02:07:11;;;;;;;13.25;8.30;;;;;;;8.19;77.02;96940.09;4972610;28;20038;-83
2022/11/16 02:10:17;;;;;;;14.35;8.60;;;;;;;8.22;76.57;96934.47;4972055;28;20090;-83
2022/11/16 02:13:04;;;;;;;14.98;8.52;;;;;;;8.13;77.21;96935.72;4971483;28;20039;-83
2022/11/16 02:15:46;;;;;;;13.50;8.85;;;;;;;8.19;77.66;96940.09;4972696;28;20065;-83
2022/11/16 02:18:24;;;;;;;13.77;8.60;;;;;;;8.24;77.47;96941.06;4971192;28;20038;-82
2022/11/16 02:21:29;;;;;;;13.80;8.93;;;;;;;8.29;77.26;96925.56;4971747;28;20026;-83
2022/11/16 02:24:36;;;;;;;16.50;9.27;;;;;;;8.38;77.38;96927.91;4972565;28;20126;-83
2022/11/16 02:27:42;;;;;;;13.23;7.90;;;;;;;8.42;77.39;96931.72;4971411;28;20501;-83
2022/11/16 02:30:09;;;;;;;15.77;9.10;;;;;;;8.28;77.26;96928.41;4967442;28;20114;-83
2022/11/16 02:32:40;;;;;;;16.27;8.98;;;;;;;8.29;77.93;96920.34;4971764;28;20399;-83
2022/11/16 02:35:13;;;;;;;18.50;8.90;;;;;;;8.35;78.52;96920.50;4971838;28;20105;-83
2022/11/16 02:37:48;;;;;;;16.08;9.68;;;;;;;8.42;78.73;96923.88;4970347;28;20034;-83
2022/11/16 02:40:19;;;;;;;15.82;9.70;;;;;;;8.39;78.61;96921.69;4970662;28;20034;-83
2022/11/16 02:42:52;;;;;;;15.77;9.45;;;;;;;8.48;78.67;96928.25;4971910;28;20035;-83
2022/11/16 02:45:25;;;;;;;15.10;9.20;;;;;;;8.44;78.71;96920.03;4971414;28;20042;-83
2022/11/16 02:47:58;;;;;;;16.92;9.77;;;;;;;8.44;78.91;96919.22;4971780;28;20062;-83
2022/11/16 02:50:26;;;;;;;14.20;9.70;;;;;;;8.37;78.07;96916.69;4971493;28;20094;-83
2022/11/16 02:52:51;;;;;;;17.02;10.00;;;;;;;8.25;78.75;96907.91;4969078;28;20035;-83
2022/11/16 02:55:17;;;;;;;15.95;8.70;;;;;;;8.23;78.58;96917.78;4971936;28;20089;-83
2022/11/16 02:57:58;;;;;;;17.27;10.07;;;;;;;8.22;79.36;96909.16;4971629;28;20033;-83
2022/11/16 03:01:02;;;;;;;16.38;9.80;;;;;;;8.26;79.51;96909.50;4970754;28;20518;-83
2022/11/16 03:03:44;;;;;;;14.82;9.60;;;;;;;8.19;80.16;96914.78;4971302;28;20039;-83
2022/11/16 03:06:26;;;;;;;18.23;9.65;;;;;;;8.17;79.70;96911.59;4970735;28;20430;-83
2022/11/16 03:09:20;;;;;;;19.30;9.73;;;;;;;8.07;80.41;96908.66;4971559;28;20034;-83
2022/11/16 03:11:59;;;;;;;18.77;9.80;;;;;;;8.05;81.30;96919.31;4970853;28;20117;-83
2022/11/16 03:14:41;;;;;;;20.08;10.52;;;;;;;8.05;81.08;96913.28;4971437;28;20119;-83
2022/11/16 03:17:16;;;;;;;17.42;9.80;;;;;;;7.90;81.24;96902.34;4970705;28;20058;-83
2022/11/16 03:19:52;;;;;;;15.93;10.10;;;;;;;7.98;81.34;96912.53;4970692;28;20114;-83
2022/11/16 03:22:45;;;;;;;18.08;10.13;;;;;;;7.98;81.53;96920.38;4970935;28;20039;-83
2022/11/16 03:25:16;;;;;;;17.70;10.32;;;;;;;7.95;81.94;96918.97;4970746;28;20450;-84
2022/11/16 03:27:48;;;;;;;;;;;;;;;7.91;82.30;96927.44;4971610;28;20043;-84
2022/11/16 03:30:24;;;;;;;15.20;9.68;;;;;;;7.84;82.52;96926.69;4968951;28;19926;-83
2022/11/16 03:33:15;;;;;;;17.80;10.40;;;;;;;7.86;83.00;96925.47;4969799;28;20073;-83
2022/11/16 03:35:51;;;;;;;15.67;9.47;;;;;;;7.78;82.69;96917.88;4971226;28;20037;-83
2022/11/16 03:38:21;;;;;;;17.67;10.25;;;;;;;7.84;82.80;96911.00;4969802;28;20528;-83
2022/11/16 03:40:50;;;;;;;18.85;10.77;;;;;;;7.75;82.97;96915.69;4971304;28;20066;-84
2022/11/16 03:43:19;;;;;;;16.27;9.93;;;;;;;7.76;83.54;96919.91;4971421;28;20042;-84
2022/11/16 03:45:46;;;;;;;15.05;9.15;;;;;;;7.72;83.51;96935.16;4971130;28;20049;-83
2022/11/16 03:48:12;;;;;;;18.45;10.45;;;;;;;7.76;84.32;96938.97;4962312;28;20089;-83
2022/11/16 03:50:39;;;;;;;19.60;10.15;;;;;;;7.76;83.46;96936.34;4970606;28;20084;-83
2022/11/16 03:53:05;;;;;;;17.52;10.25;;;;;;;7.74;83.31;96938.41;4970858;28;20035;-84
2022/11/16 03:55:30;;;;;;;17.35;10.02;;;;;;;7.72;83.56;96939.59;4979925;28;20070;-83
2022/11/16 03:57:56;;;;;;;17.15;10.35;;;;;;;7.67;nan;96939.41;4970470;28;20046;-83
2022/11/16 04:00:22;;;;;;;16.63;9.18;;;;;;;7.64;83.12;96932.03;4970306;28;20035;-83
2022/11/16 04:02:47;;;;;;;19.35;10.25;;;;;;;7.59;83.84;96935.25;4969319;28;20435;-84
2022/11/16 04:24:45;;;;;;;16.88;9.75;;;;;;;7.44;84.99;96947.78;4970773;28;20037;-84
2022/11/16 04:30:02;;;;;;;16.92;9.32;;;;;;;7.40;84.77;96931.72;4965544;28;20541;-84
2022/11/16 04:37:58;;;;;;;18.33;9.23;;;;;;;7.39;84.86;96929.34;4969597;28;20122;-83
2022/11/16 04:40:28;;;;;;;15.77;9.32;;;;;;;7.36;85.54;96932.34;4970273;28;20136;-83
2022/11/16 04:42:59;;;;;;;17.67;10.23;;;;;;;7.27;86.32;96925.78;4970010;28;20050;-84
2022/11/16 04:48:13;;;;;;;16.55;9.55;;;;;;;7.26;86.05;96927.59;4969461;28;20100;-84
2022/11/16 04:50:40;;;;;;;16.98;9.98;;;;;;;7.30;85.74;96920.94;4970037;28;20479;-84
2022/11/16 04:53:07;;;;;;;18.40;9.85;;;;;;;7.21;86.31;96911.75;4970397;28;20039;-85
2022/11/16 04:55:33;;;;;;;14.35;8.85;;;;;;;7.17;86.60;96908.75;4970676;28;20039;-84
2022/11/16 04:58:00;;;;;;;14.18;9.25;;;;;;;7.03;86.52;96909.00;4970625;28;20395;-84
2022/11/16 05:00:26;;;;;;;15.73;9.60;;;;;;;7.02;87.75;96908.22;4970339;28;20050;-83
2022/11/16 05:02:52;;;;;;;16.00;8.60;;;;;;;6.95;87.78;96903.00;4968873;28;20049;-83
2022/11/16 05:05:17;;;;;;;15.40;9.50;;;;;;;6.91;87.99;96901.81;4970032;28;20061;-84
2022/11/16 05:07:43;;;;;;;17.02;10.15;;;;;;;6.92;88.40;96902.63;4969560;28;20537;-83
2022/11/16 05:10:10;;;;;;;15.93;9.25;;;;;;;6.76;88.64;96895.25;4969862;28;20039;-84
2022/11/16 05:12:35;;;;;;;15.80;9.43;;;;;;;6.76;88.79;96898.66;4969623;28;20031;-84
2022/11/16 05:15:02;;;;;;;16.42;9.23;;;;;;;6.81;89.15;96908.47;4966241;28;20035;-83
2022/11/16 05:17:28;;;;;;;15.57;9.27;;;;;;;6.74;89.31;96894.66;4970279;28;20383;-83
2022/11/16 05:22:38;;;;;;;14.20;8.82;;;;;;;6.67;89.66;96887.66;4973862;28;20031;-85
2022/11/16 05:25:06;;;;;;;14.77;8.88;;;;;;;6.67;90.11;96887.66;4972808;28;20047;-84
2022/11/16 05:27:32;;;;;;;16.77;9.85;;;;;;;6.61;89.99;96882.47;4970979;28;20479;-84
2022/11/16 05:29:58;;;;;;;17.38;9.18;;;;;;;6.56;90.60;96888.28;4971342;28;20058;-83
2022/11/16 05:32:26;;;;;;;14.88;9.35;;;;;;;6.57;91.19;96889.88;4973499;28;20046;-84
2022/11/16 05:34:53;;;;;;;15.25;8.52;;;;;;;6.54;91.44;96895.50;4971287;28;20043;-84
2022/11/16 05:37:25;;;;;;;17.42;8.95;;;;;;;6.58;91.29;96886.25;4973422;28;20035;-83
2022/11/16 05:39:53;;;;;;;15.35;9.18;;;;;;;6.65;91.04;96886.25;4971923;28;20042;-84
2022/11/16 05:42:19;;;;;;;17.13;9.27;;;;;;;6.60;91.36;96886.88;4972338;28;20039;-84
2022/11/16 05:44:44;;;;;;;16.35;9.57;;;;;;;6.64;91.33;96887.25;4973348;28;20052;-84
2022/11/16 05:47:10;;;;;;;16.67;8.43;;;;;;;6.68;90.48;96885.84;4973411;28;20042;-84
2022/11/16 05:49:35;;;;;;;17.70;9.20;;;;;;;6.63;90.41;96878.63;4973467;28;20039;-85
2022/11/16 05:52:01;;;;;;;14.20;8.13;;;;;;;6.61;90.40;96879.84;4972174;28;20069;-84
2022/11/16 05:54:26;;;;;;;18.67;9.30;;;;;;;6.57;90.38;96884.66;4973276;28;20073;-84
2022/11/16 05:56:53;;;;;;;17.70;9.05;;;;;;;6.61;90.32;96885.88;4973328;28;20043;-84
2022/11/16 05:59:21;;;;;;;19.20;9.88;;;;;;;6.64;90.27;96884.66;4973259;28;20043;-84
2022/11/16 06:01:47;;;;;;;14.63;8.90;;;;;;;6.69;90.39;96888.25;4973090;28;20110;-83
2022/11/16 06:04:13;;;;;;;15.35;9.27;;;;;;;6.60;90.34;96879.06;4972756;28;20043;-83
2022/11/16 06:06:40;;;;;;;15.55;9.02;;;;;;;6.62;91.18;96881.44;4973224;28;20031;-84
2022/11/16 06:09:06;;;;;;;13.98;8.50;;;;;;;6.51;91.57;96880.25;4972769;28;20097;-84
2022/11/16 06:11:33;;;;;;;15.73;9.02;;;;;;;6.48;91.58;96875.47;4986354;28;20046;-84
2022/11/16 06:13:58;;;;;;;19.50;10.00;;;;;;;6.51;91.92;96874.25;4973078;28;20031;-84
2022/11/16 06:16:24;;;;;;;17.02;9.07;;;;;;;6.45;91.93;96873.25;4972856;28;20043;-84
2022/11/16 06:18:50;;;;;;;19.38;9.68;;;;;;;6.47;93.01;96873.84;4972951;28;20154;-84
2022/11/16 06:21:18;;;;;;;18.92;10.35;;;;;;;6.57;93.13;96874.25;4972443;28;20039;-84
2022/11/16 06:23:44;;;;;;;15.45;8.85;;;;;;;6.62;92.44;96882.25;4972703;28;20506;-83
2022/11/16 06:26:10;;;;;;;15.00;9.27;;;;;;;6.61;92.16;96879.84;4972182;28;20039;-84
2022/11/16 06:28:36;;;;;;;16.73;9.50;;;;;;;6.54;92.05;96887.69;4971526;28;20050;-84
2022/11/16 06:31:02;;;;;;;16.23;8.52;;;;;;;6.56;91.70;96883.06;4967496;28;20050;-84
2022/11/16 06:33:27;;;;;;;22.75;8.82;;;;;;;6.48;92.03;96885.91;4971792;28;20046;-83
2022/11/16 06:35:53;;;;;;;16.67;8.90;;;;;;;6.56;92.45;96882.28;4971859;28;20085;-84
2022/11/16 06:38:19;;;;;;;18.95;9.70;;;;;;;6.62;92.36;96884.84;4971508;28;20493;-84
2022/11/16 06:40:57;;;;;;;16.77;10.18;;;;;;;6.62;92.15;96886.66;4970983;28;20043;-84
2022/11/16 06:43:24;;;;;;;18.50;9.30;;;;;;;6.69;92.31;96887.44;4969515;28;20046;-84
2022/11/16 06:45:55;;;;;;;15.80;9.10;;;;;;;6.68;92.20;96880.63;4971428;28;20077;-84
2022/11/16 06:48:21;;;;;;;17.05;9.18;;;;;;;6.64;91.88;96885.44;4972120;28;20042;-83
2022/11/16 06:50:48;;;;;;;17.35;9.32;;;;;;;6.61;92.57;96880.66;4971616;28;20033;-84
2022/11/16 06:53:15;;;;;;;16.38;9.40;;;;;;;6.64;92.65;96888.03;4972021;28;20078;-84
2022/11/16 06:55:41;;;;;;;15.20;9.43;;;;;;;6.73;92.57;96882.63;4971730;28;20053;-84
2022/11/16 06:58:06;;;;;;;16.90;9.70;;;;;;;6.67;92.42;96894.66;4971862;28;20070;-84
2022/11/16 07:00:32;;;;;;;17.17;9.68;;;;;;;6.69;92.48;96883.03;4971887;28;20066;-83
2022/11/16 07:02:57;;;;;;;17.08;9.82;;;;;;;6.70;92.32;96895.03;4971123;28;20184;-84
2022/11/16 07:05:23;;;;;;;18.63;10.30;;;;;;;6.68;92.23;96891.06;4971488;28;20204;-84
2022/11/16 07:07:55;;;;;;;18.38;9.45;;;;;;;6.71;92.75;96901.84;4963357;28;20591;-83
2022/11/16 07:10:22;;;;;;;18.67;10.50;;;;;;;6.79;92.32;96897.47;4971193;28;20101;-83
2022/11/16 07:12:47;;;;;;;15.75;9.23;;;;;;;6.87;92.19;96903.22;4971383;28;20035;-84
2022/11/16 07:15:13;;;;;;;17.85;9.80;;;;;;;7.00;91.97;96894.56;4986641;28;20104;-84
2022/11/16 07:17:38;;;;;;;15.20;9.10;;;;;;;6.96;90.92;96909.03;4971096;28;20138;-83
2022/11/16 07:20:05;;;;;;;17.15;9.50;;;;;;;7.02;91.02;96917.81;4972298;28;20435;-83
2022/11/16 07:22:31;;;;;;;17.80;10.07;;;;;;;7.13;91.48;96915.38;4985938;28;20510;-83
2022/11/16 07:24:57;;;;;;;15.70;9.15;;;;;;;7.18;89.97;96926.00;4986642;28;20039;-83
2022/11/16 07:27:22;;;;;;;16.88;9.13;;;;;;;7.24;90.01;96922.56;4971359;28;20099;-84
2022/11/16 07:29:48;;;;;;;16.65;9.75;;;;;;;7.37;90.24;96923.50;4971156;28;20043;-83
2022/11/16 07:32:13;;;;;;;17.05;10.32;;;;;;;7.38;89.64;96914.69;4974529;28;20047;-83
2022/11/16 07:34:39;;;;;;;18.42;12.00;;;;;;;7.29;89.96;96908.09;4970306;28;20030;-84
2022/11/16 07:37:04;;;;;;;23.70;14.00;;;;;;;7.17;90.29;96916.56;4970987;28;20647;-83
2022/11/16 07:39:30;;;;;;;16.70;10.23;;;;;;;7.13;91.23;96920.59;4968181;28;20578;-84
2022/11/16 07:41:55;;;;;;;16.70;9.50;;;;;;;7.10;91.50;96920.22;4970515;28;20664;-84
2022/11/16 07:44:21;;;;;;;18.48;10.98;;;;;;;7.08;92.27;96933.47;4984330;28;20716;-83
2022/11/16 07:46:48;;;;;;;19.77;10.90;;;;;;;7.21;92.09;96941.25;4970523;28;20038;-84
2022/11/16 07:49:17;;;;;;;17.98;10.45;;;;;;;7.23;91.83;96936.59;4964808;28;20043;-83
2022/11/16 07:51:44;;;;;;;18.70;10.77;;;;;;;7.31;91.74;96940.78;4971494;28;20034;-84
2022/11/16 07:54:14;;;;;;;16.42;9.98;;;;;;;7.32;91.69;96937.19;4970906;28;20423;-84
2022/11/16 07:56:40;;;;;;;20.33;11.52;;;;;;;7.33;91.83;96930.16;4970755;28;20035;-85
2022/11/16 07:59:06;;;;;;;18.75;11.25;;;;;;;7.39;91.55;96934.56;4969541;28;20474;-83
2022/11/16 08:01:32;;;;;;;14.93;9.68;;;;;;;7.31;91.05;96932.97;4982429;28;20031;-84
2022/11/16 08:04:00;;;;;;;16.20;9.68;;;;;;;7.33;90.90;96935.38;4969744;28;20546;-83
2022/11/16 08:06:29;;;;;;;19.83;10.30;;;;;;;7.27;90.86;96937.00;4968469;28;20046;-83
2022/11/16 08:08:56;;;;;;;18.80;10.35;;;;;;;7.20;91.56;96931.81;4969402;28;20045;-83
2022/11/16 08:11:22;;;;;;;17.48;10.05;;;;;;;7.29;91.41;96939.41;4969533;28;20043;-84
2022/11/16 08:13:48;;;;;;;19.48;11.07;;;;;;;7.30;91.39;96941.00;4969864;28;20059;-85
2022/11/16 08:16:18;;;;;;;18.95;10.65;;;;;;;7.26;91.38;96924.97;4970695;28;20070;-85
2022/11/16 08:18:44;;;;;;;19.70;10.25;;;;;;;7.37;91.99;96936.53;4969853;28;20114;-84
2022/11/16 08:21:13;;;;;;;18.60;11.48;;;;;;;7.39;91.88;96924.13;4968693;28;20041;-84
2022/11/16 08:23:40;;;;;;;16.17;9.90;;;;;;;7.45;91.50;96928.50;4969890;28;20035;-85
2022/11/16 08:26:08;;;;;;;15.18;8.65;;;;;;;7.43;91.35;96927.88;4969735;28;20066;-84
2022/11/16 08:28:36;;;;;;;19.23;10.30;;;;;;;7.46;91.69;96932.72;4968245;28;20125;-84
2022/11/16 08:31:17;;;;;;;19.42;11.68;;;;;;;7.39;92.31;96930.13;4969421;28;20042;-84
2022/11/16 08:33:43;;;;;;;;;;;;;;;7.37;92.48;96936.53;4969117;28;20267;-84
2022/11/16 08:36:15;;;;;;;18.42;10.93;;;;;;;7.36;93.23;96940.16;4969247;28;20004;-84
2022/11/16 08:38:42;;;;;;;18.38;10.93;;;;;;;7.34;93.26;96939.59;4969379;28;20039;-84
2022/11/16 08:41:07;;;;;;;21.02;11.73;;;;;;;7.36;94.12;96934.94;4973299;28;20039;-85
2022/11/16 08:43:34;;;;;;;14.85;8.88;;;;;;;7.28;93.19;96940.41;4969457;28;20050;-84
2022/11/16 08:46:00;;;;;;;20.75;10.80;;;;;;;7.29;93.17;96940.19;4967827;28;20432;-84
2022/11/16 08:48:26;;;;;;;19.17;10.65;;;;;;;7.24;93.59;96937.41;4967387;28;20118;-84
2022/11/16 08:50:52;;;;;;;19.73;10.30;;;;;;;7.25;93.62;96945.00;4966623;28;20053;-84
2022/11/16 08:53:18;;;;;;;17.15;9.90;;;;;;;7.28;94.29;96943.81;4973216;28;20125;-84
2022/11/16 08:55:43;;;;;;;19.70;11.30;;;;;;;7.31;93.98;96947.81;4973310;28;20149;-85
2022/11/16 08:58:09;;;;;;;18.17;10.52;;;;;;;7.36;94.06;96942.78;4972968;28;20031;-83
2022/11/16 09:00:36;;;;;;;18.73;9.25;;;;;;;7.39;93.55;96948.38;4973424;28;20122;-84
2022/11/16 09:03:01;;;;;;;18.80;9.88;;;;;;;7.40;94.60;96949.19;4973547;28;20023;-83
2022/11/16 09:05:27;;;;;;;18.15;11.23;;;;;;;7.57;94.26;96952.94;4972841;28;20053;-84
2022/11/16 09:07:53;;;;;;;17.35;10.60;;;;;;;7.60;93.41;96952.50;4987773;28;20039;-84
2022/11/16 09:10:21;;;;;;;19.33;10.93;;;;;;;7.63;93.40;96952.09;4972159;28;20042;-83
2022/11/16 09:12:51;;;;;;;16.80;10.13;;;;;;;7.69;93.90;96950.47;4972125;28;20053;-84
2022/11/16 09:15:18;;;;;;;15.80;10.25;;;;;;;7.73;93.07;96952.44;4973227;28;20050;-83
2022/11/16 09:17:44;;;;;;;17.45;10.00;;;;;;;7.77;93.47;96943.19;4972035;28;20125;-84
2022/11/16 09:20:10;;;;;;;19.58;11.20;;;;;;;7.78;92.65;96960.44;4972201;28;20394;-82
2022/11/16 09:22:35;;;;;;;18.30;10.57;;;;;;;7.90;93.26;96962.38;4973983;28;20034;-84
2022/11/16 09:25:01;;;;;;;17.27;10.43;;;;;;;7.87;92.84;96952.38;4972639;28;20070;-84
2022/11/16 09:27:27;;;;;;;19.83;11.02;;;;;;;7.97;92.85;96963.13;4971918;28;20125;-84
2022/11/16 09:29:52;;;;;;;16.75;9.75;;;;;;;8.01;92.24;96965.13;4965738;28;20038;-85
2022/11/16 09:32:17;;;;;;;17.65;9.80;;;;;;;8.02;92.16;96958.88;4971994;28;20388;-84
2022/11/16 09:34:43;;;;;;;17.85;9.88;;;;;;;8.00;92.17;96957.50;4971803;28;20130;-84
2022/11/16 09:37:08;;;;;;;16.48;9.27;;;;;;;7.94;92.63;96959.16;4972265;28;20041;-84
2022/11/16 09:39:34;;;;;;;19.83;10.60;;;;;;;8.01;93.03;96964.31;4972908;28;20093;-84
2022/11/16 09:42:31;;;;;;;18.60;10.90;;;;;;;8.07;92.71;96962.69;4972229;28;20031;-84
2022/11/16 09:45:29;;;;;;;23.15;10.63;;;;;;;8.19;92.47;96974.06;4972090;28;20042;-84
2022/11/16 09:48:01;;;;;;;16.67;8.30;;;;;;;8.12;91.71;96958.44;4968008;28;20042;-84
2022/11/16 09:50:44;;;;;;;16.08;10.15;;;;;;;8.11;91.38;96980.34;4972310;28;20045;-84
2022/11/16 09:53:45;;;;;;;17.23;9.88;;;;;;;8.17;91.84;96978.69;4971038;28;20070;-84
2022/11/16 09:56:27;;;;;;;15.88;10.10;;;;;;;8.25;91.34;96978.44;4972088;28;20126;-84
2022/11/16 09:59:16;;;;;;;14.30;9.02;;;;;;;8.17;90.98;96984.72;4970486;28;20034;-84
2022/11/16 10:02:04;;;;;;;18.48;9.32;;;;;;;8.13;91.27;96983.53;4972499;28;20027;-84
2022/11/16 10:04:42;;;;;;;23.63;10.85;;;;;;;8.22;91.86;96991.94;4971416;28;20043;-84
2022/11/16 10:07:14;;;;;;;16.67;9.25;;;;;;;8.29;91.39;96983.03;4972517;28;20034;-84
2022/11/16 10:09:42;;;;;;;15.82;9.82;;;;;;;8.27;90.73;96985.03;4972520;28;20039;-84
2022/11/16 10:12:22;;;;;;;17.77;9.38;;;;;;;8.31;91.35;96991.44;4970456;28;20086;-84
2022/11/16 10:15:44;;;;;;;23.13;11.10;;;;;;;8.46;91.29;96982.53;4972755;28;20395;-85
2022/11/16 10:18:45;;;;;;;19.33;9.95;;;;;;;8.57;90.41;96974.00;4954098;28;20125;-84
2022/11/16 10:21:31;;;;;;;21.40;10.18;;;;;;;8.56;90.90;96983.66;4971927;28;20038;-84
2022/11/16 10:24:25;;;;;;;12.38;8.13;;;;;;;8.46;91.05;96982.53;4971684;28;20113;-85
2022/11/16 10:27:26;;;;;;;19.23;9.68;;;;;;;8.45;91.74;96965.25;4971287;28;20505;-84
2022/11/16 10:30:17;;;;;;;14.02;8.82;;;;;;;8.54;91.63;96966.59;4971408;28;20041;-84
2022/11/16 10:33:09;;;;;;;16.42;10.02;;;;;;;8.70;91.50;96967.88;4970362;28;20121;-85
2022/11/16 10:35:51;;;;;;;13.15;8.75;;;;;;;8.69;91.00;96971.47;4971614;28;20563;-84
2022/11/16 10:38:23;;;;;;;16.15;8.50;;;;;;;8.75;90.98;96966.19;4970215;28;20034;-84
2022/11/16 10:40:56;;;;;;;15.27;9.43;;;;;;;9.00;90.74;96962.75;4969324;28;20043;-84
2022/11/16 10:43:30;;;;;;;13.27;8.70;;;;;;;9.02;89.44;96961.50;4971350;28;20038;-85
2022/11/16 10:46:23;;;;;;;12.88;8.48;;;;;;;9.00;89.97;96955.72;4970751;28;20042;-85
2022/11/16 10:49:31;;;;;;;14.18;8.90;;;;;;;9.03;89.81;96957.09;4967872;28;20038;-84
2022/11/16 10:51:57;;;;;;;13.82;8.85;;;;;;;9.10;89.64;96953.38;4970294;28;20034;-85
2022/11/16 10:54:22;;;;;;;13.20;8.63;;;;;;;9.22;89.65;96952.66;4977199;28;20102;-84
2022/11/16 10:57:13;;;;;;;12.98;8.38;;;;;;;9.32;89.65;96956.34;4970577;28;20031;-84
2022/11/16 10:59:54;;;;;;;15.50;9.70;;;;;;;9.50;89.46;96946.91;4971069;28;20038;-84
2022/11/16 11:02:35;;;;;;;13.75;8.48;;;;;;;9.60;87.93;96952.41;4970320;28;20085;-84
2022/11/16 11:05:05;;;;;;;14.98;8.68;;;;;;;9.92;87.47;96945.94;4970244;28;20102;-84
2022/11/16 11:07:36;;;;;;;13.32;8.80;;;;;;;10.19;86.11;96945.53;4970887;28;20031;-84
2022/11/16 11:10:03;;;;;;;13.20;8.38;;;;;;;10.36;85.44;96940.47;4970641;28;20045;-84
2022/11/16 11:12:38;;;;;;;13.30;8.57;;;;;;;10.61;84.90;96948.13;4967757;28;20101;-83
2022/11/16 11:15:17;;;;;;;14.23;9.48;;;;;;;10.76;84.25;96942.44;4970231;28;20815;-84
2022/11/16 11:17:46;;;;;;;13.23;8.60;;;;;;;10.76;82.82;96935.38;4968704;28;20031;-85
2022/11/16 11:20:14;;;;;;;13.32;9.18;;;;;;;10.72;83.44;96940.25;4969977;28;20545;-84
2022/11/16 11:23:12;;;;;;;13.88;9.25;;;;;;;10.67;82.98;96939.34;4970385;28;20491;-84
2022/11/16 11:25:55;;;;;;;14.75;9.40;;;;;;;10.59;83.09;96939.69;4970098;28;20066;-84
2022/11/16 11:28:30;;;;;;;11.20;8.32;;;;;;;10.35;83.39;96931.81;4970012;28;20096;-84
2022/11/16 11:31:25;;;;;;;12.65;8.40;;;;;;;10.34;83.72;96927.59;4969276;28;20051;-84
2022/11/16 11:34:02;;;;;;;13.60;9.50;;;;;;;10.22;84.66;96918.09;4979226;28;20050;-84
2022/11/16 11:36:40;;;;;;;14.65;9.43;;;;;;;10.35;84.77;96931.81;4969940;28;20046;-84
2022/11/16 11:39:12;;;;;;;13.23;9.43;;;;;;;10.47;84.78;96936.25;4968182;28;20089;-84
2022/11/16 11:41:42;;;;;;;12.75;8.93;;;;;;;10.38;84.49;96922.72;4968330;28;20031;-84
2022/11/16 11:44:18;;;;;;;13.55;9.10;;;;;;;10.38;85.04;96918.25;4969113;28;20042;-84
2022/11/16 11:47:15;;;;;;;12.85;8.48;;;;;;;10.22;85.24;96918.88;4968843;28;20117;-84
2022/11/16 11:49:51;;;;;;;11.93;8.38;;;;;;;10.17;86.06;96913.53;4966000;28;20648;-83
2022/11/16 11:52:40;;;;;;;13.75;9.43;;;;;;;10.26;87.35;96920.06;4969306;28;20038;-84
2022/11/16 11:55:12;;;;;;;13.73;9.32;;;;;;;10.48;87.88;96922.91;4969139;28;20038;-84
2022/11/16 11:57:43;;;;;;;13.75;9.57;;;;;;;10.83;87.09;96915.06;4968009;28;20721;-84
2022/11/16 12:00:13;;;;;;;14.52;9.55;;;;;;;10.90;85.81;96907.84;4969918;28;20466;-84
2022/11/16 12:03:06;;;;;;;15.60;11.33;;;;;;;11.15;85.75;96910.22;4969893;28;20663;-83
2022/11/16 12:05:50;;;;;;;17.98;11.85;;;;;;;11.36;85.15;96908.78;4969323;28;20038;-83
2022/11/16 12:08:56;;;;;;;17.77;11.15;;;;;;;11.24;83.26;96910.66;4984487;28;20089;-83
2022/11/16 12:12:05;;;;;;;14.20;10.18;;;;;;;11.13;84.70;96914.09;4969894;28;20086;-84
2022/11/16 12:14:49;;;;;;;17.52;10.75;;;;;;;11.26;84.49;96909.38;4957249;28;20055;-83
2022/11/16 12:17:59;;;;;;;17.80;11.30;;;;;;;11.34;84.67;96910.88;4968343;28;20043;-83
2022/11/16 12:20:59;;;;;;;17.02;12.00;;;;;;;11.55;84.19;96901.53;4956297;28;20051;-83
2022/11/16 12:23:55;;;;;;;16.17;10.80;;;;;;;11.63;83.44;96898.53;4956442;28;20055;-84
2022/11/16 12:27:00;;;;;;;17.33;11.43;;;;;;;11.76;82.75;96890.38;4968704;28;20395;-84
2022/11/16 12:29:39;;;;;;;14.95;10.98;;;;;;;11.61;83.66;96895.34;4982203;28;20043;-83